Time;durP1;ratioP1;P1;durP2;ratioP2;P2;SDS_P1;SDS_P2;PMS_P1;PMS_P2;Temp;Humidity;BMP_temperature;BMP_pressure;BME280_temperature;BME280_humidity;BME280_pressure;Samples;Min_cycle;Max_cycle;Signal;HPM_P1;HPM_P2
2022/10/01 00:02:07;;;;;;;8.10;6.20;;;;;;;11.56;100.00;97518.14;110478;1244;71436;-77
2022/10/01 00:04:36;;;;;;;10.70;7.40;;;;;;;11.57;100.00;97517.19;110513;1245;69489;-77
2022/10/01 00:07:08;;;;;;;9.40;6.60;;;;;;;11.59;100.00;97517.87;110408;1246;69402;-78
2022/10/01 00:09:37;;;;;;;8.50;6.40;;;;;;;11.60;100.00;97524.77;110434;1247;59687;-78
2022/10/01 00:12:05;;;;;;;8.80;5.90;;;;;;;11.61;100.00;97522.79;110562;1245;59676;-77
2022/10/01 00:14:34;;;;;;;6.60;5.20;;;;;;;11.63;100.00;97530.13;110521;1245;70757;-77
2022/10/01 00:17:03;;;;;;;8.70;5.80;;;;;;;11.67;100.00;97533.20;110490;1244;68562;-78
2022/10/01 00:19:32;;;;;;;9.90;7.10;;;;;;;11.72;100.00;97526.30;110509;1245;69159;-77
2022/10/01 00:22:00;;;;;;;12.50;6.60;;;;;;;11.75;100.00;97525.41;110424;1244;59733;-78
2022/10/01 00:24:28;;;;;;;10.00;7.60;;;;;;;11.80;100.00;97523.64;110872;1244;59640;-77
2022/10/01 00:26:56;;;;;;;9.80;6.80;;;;;;;11.84;100.00;97529.29;110797;1244;70637;-78
2022/10/01 00:29:25;;;;;;;11.20;7.20;;;;;;;11.88;100.00;97534.03;110476;1245;69284;-78
2022/10/01 00:31:53;;;;;;;8.20;6.50;;;;;;;11.92;100.00;97530.59;110558;1245;69373;-78
2022/10/01 00:34:21;;;;;;;8.00;5.80;;;;;;;11.94;100.00;97530.81;110405;1247;59736;-78
2022/10/01 00:36:49;;;;;;;9.50;5.80;;;;;;;11.97;100.00;97535.78;110503;1244;59684;-78
2022/10/01 00:39:18;;;;;;;8.40;6.60;;;;;;;12.00;100.00;97535.41;110324;1245;71527;-78
2022/10/01 00:41:47;;;;;;;10.40;6.80;;;;;;;12.02;100.00;97526.34;110391;1246;69394;-78
2022/10/01 00:44:31;;;;;;;8.20;6.60;;;;;;;12.04;100.00;97519.19;110418;1245;69431;-78
2022/10/01 00:47:30;;;;;;;10.60;7.00;;;;;;;12.08;100.00;97518.94;110622;1244;59679;-77
2022/10/01 00:50:10;;;;;;;10.00;6.40;;;;;;;12.08;100.00;97526.23;110476;1245;59656;-77
2022/10/01 00:52:41;;;;;;;8.50;6.80;;;;;;;12.09;100.00;97527.17;110353;1247;70571;-78
2022/10/01 00:55:15;;;;;;;8.90;6.60;;;;;;;12.09;100.00;97524.02;110322;1244;68836;-77
2022/10/01 00:57:44;;;;;;;6.50;5.30;;;;;;;12.10;100.00;97532.72;110394;1245;69090;-77
2022/10/01 01:00:13;;;;;;;9.60;5.70;;;;;;;12.11;100.00;97534.59;110337;1245;59680;-78
2022/10/01 01:02:43;;;;;;;11.80;10.00;;;;;;;12.13;100.00;97536.90;110378;1244;59699;-76
2022/10/01 01:05:13;;;;;;;13.50;10.40;;;;;;;12.06;100.00;97531.63;110311;1247;70783;-79
2022/10/01 01:07:45;;;;;;;15.30;10.60;;;;;;;11.92;100.00;97528.74;110444;1247;69346;-78
2022/10/01 01:10:18;;;;;;;14.00;10.20;;;;;;;11.79;100.00;97529.64;110333;1247;68622;-77
2022/10/01 01:13:25;;;;;;;16.10;11.90;;;;;;;11.69;100.00;97525.67;110384;1245;59728;-79
2022/10/01 01:16:19;;;;;;;16.10;12.40;;;;;;;11.61;100.00;97524.20;110434;1244;59700;-77
2022/10/01 01:19:03;;;;;;;14.10;10.10;;;;;;;11.56;100.00;97521.05;110497;1244;71389;-79
2022/10/01 01:21:43;;;;;;;12.20;9.10;;;;;;;11.53;100.00;97509.64;110375;1244;69292;-78
2022/10/01 01:24:37;;;;;;;14.40;11.70;;;;;;;11.47;100.00;97499.06;110468;1245;69432;-78
2022/10/01 01:27:17;;;;;;;13.00;9.70;;;;;;;11.40;100.00;97494.71;110484;1247;59699;-76
2022/10/01 01:29:59;;;;;;;15.50;11.50;;;;;;;11.33;100.00;97487.55;111155;1244;59633;-78
2022/10/01 01:32:37;;;;;;;12.70;9.50;;;;;;;11.27;100.00;97486.79;110820;1244;70827;-78
2022/10/01 01:35:10;;;;;;;14.80;9.10;;;;;;;11.22;100.00;97487.65;110616;1246;67616;-78
2022/10/01 01:37:44;;;;;;;14.30;10.10;;;;;;;11.18;100.00;97494.23;110756;1245;69280;-77
2022/10/01 01:40:15;;;;;;;13.60;10.00;;;;;;;11.15;100.00;97501.65;110813;1244;60076;-77
2022/10/01 01:42:47;;;;;;;11.40;8.70;;;;;;;11.12;100.00;97499.91;110912;1244;59673;-77
2022/10/01 01:45:21;;;;;;;9.90;8.00;;;;;;;11.12;100.00;97498.52;110376;1247;72137;-77
2022/10/01 01:47:54;;;;;;;13.30;8.90;;;;;;;11.14;100.00;97494.17;110548;1247;68493;-76
2022/10/01 01:50:28;;;;;;;13.50;9.30;;;;;;;11.17;100.00;97498.89;110642;1244;69867;-78
2022/10/01 01:52:58;;;;;;;11.30;8.00;;;;;;;11.19;100.00;97500.79;110528;1244;59676;-77
2022/10/01 01:55:29;;;;;;;11.10;8.80;;;;;;;11.20;100.00;97497.38;110465;1244;59689;-78
2022/10/01 01:57:58;;;;;;;11.00;8.90;;;;;;;11.20;100.00;97502.64;110624;1245;70462;-79
2022/10/01 02:00:27;;;;;;;11.90;7.80;;;;;;;11.21;100.00;97505.04;110444;1245;68118;-79
2022/10/01 02:02:57;;;;;;;10.10;7.30;;;;;;;11.22;100.00;97501.80;110518;1245;68804;-78
2022/10/01 02:05:36;;;;;;;10.60;7.30;;;;;;;11.22;100.00;97497.95;110566;1245;59748;-78
2022/10/01 02:08:29;;;;;;;10.50;7.40;;;;;;;11.23;100.00;97489.86;110721;1244;59699;-77
2022/10/01 02:11:04;;;;;;;9.40;6.70;;;;;;;11.23;100.00;97494.39;110462;1247;72278;-78
2022/10/01 02:13:43;;;;;;;13.70;9.10;;;;;;;11.21;100.00;97484.27;110501;1244;69319;-77
2022/10/01 02:16:49;;;;;;;10.50;7.60;;;;;;;11.17;100.00;97476.15;110482;1244;69229;-77
2022/10/01 02:19:39;;;;;;;11.40;8.30;;;;;;;11.17;100.00;97470.96;110524;1245;59682;-77
2022/10/01 02:22:16;;;;;;;11.20;8.10;;;;;;;11.22;100.00;97466.39;110564;1245;59607;-77
2022/10/01 02:24:55;;;;;;;12.50;9.80;;;;;;;11.24;100.00;97468.52;110510;1245;71485;-77
2022/10/01 02:27:35;;;;;;;14.50;7.90;;;;;;;11.27;100.00;97466.04;110422;1247;68759;-77
2022/10/01 02:30:08;;;;;;;8.10;6.00;;;;;;;11.29;100.00;97468.65;110607;1245;68702;-77
2022/10/01 02:32:39;;;;;;;8.80;6.60;;;;;;;11.32;100.00;97471.77;110584;1245;59669;-77
2022/10/01 02:35:12;;;;;;;7.40;5.30;;;;;;;11.33;100.00;97474.33;110982;1244;59657;-78
2022/10/01 02:37:45;;;;;;;9.00;5.90;;;;;;;11.34;100.00;97477.05;110621;1245;70817;-78
2022/10/01 02:40:19;;;;;;;10.30;6.70;;;;;;;11.33;100.00;97479.02;110608;1245;68618;-77
2022/10/01 02:42:58;;;;;;;7.20;5.50;;;;;;;11.32;100.00;97475.80;110776;1245;69829;-77
2022/10/01 02:45:30;;;;;;;8.30;6.70;;;;;;;11.30;100.00;97474.67;110575;1245;59747;-78
2022/10/01 02:48:07;;;;;;;9.30;7.00;;;;;;;11.26;100.00;97474.69;110366;1245;59688;-77
2022/10/01 02:50:50;;;;;;;8.90;6.90;;;;;;;11.17;100.00;97474.80;110477;1246;71470;-77
2022/10/01 02:53:39;;;;;;;8.10;5.30;;;;;;;11.09;100.00;97489.68;110432;1245;68655;-77
2022/10/01 02:56:13;;;;;;;10.40;7.00;;;;;;;11.02;100.00;97502.03;110458;1245;68498;-77
2022/10/01 02:58:46;;;;;;;8.20;6.00;;;;;;;10.97;100.00;97502.95;110349;1247;59667;-77
2022/10/01 03:01:14;;;;;;;8.70;6.40;;;;;;;10.92;100.00;97497.40;110417;1245;59728;-79
2022/10/01 03:03:42;;;;;;;8.80;5.40;;;;;;;10.88;100.00;97494.17;110487;1247;71491;-78
2022/10/01 03:06:11;;;;;;;8.70;5.20;;;;;;;10.89;100.00;97490.44;110409;1246;69738;-75
2022/10/01 03:08:40;;;;;;;7.60;5.30;;;;;;;10.91;100.00;97489.42;110398;1245;69558;-77
2022/10/01 03:11:09;;;;;;;7.40;5.50;;;;;;;10.93;100.00;97489.11;110531;1246;59886;-80
2022/10/01 03:13:38;;;;;;;8.90;5.90;;;;;;;10.92;100.00;97484.51;110634;1244;59675;-78
2022/10/01 03:16:07;;;;;;;8.10;6.00;;;;;;;10.93;100.00;97483.55;110655;1245;71663;-78
2022/10/01 03:18:35;;;;;;;10.00;7.10;;;;;;;10.94;100.00;97486.45;110371;1246;68491;-78
2022/10/01 03:21:03;;;;;;;7.30;5.40;;;;;;;10.89;100.00;97488.17;110426;1246;69340;-80
2022/10/01 03:23:32;;;;;;;10.10;6.60;;;;;;;10.87;100.00;97486.59;110439;1247;59680;-79
2022/10/01 03:26:01;;;;;;;9.00;6.80;;;;;;;10.87;100.00;97486.73;110416;1247;59657;-78
2022/10/01 03:28:29;;;;;;;7.90;5.60;;;;;;;10.88;100.00;97489.11;110391;1244;70673;-78
2022/10/01 03:31:05;;;;;;;7.50;5.70;;;;;;;10.89;100.00;97487.85;110402;1244;69352;-79
2022/10/01 03:33:35;;;;;;;8.00;5.10;;;;;;;10.92;100.00;97491.65;110380;1246;68406;-79
2022/10/01 03:36:03;;;;;;;7.30;5.50;;;;;;;10.94;100.00;97492.34;110612;1245;59669;-76
2022/10/01 03:38:32;;;;;;;8.00;5.70;;;;;;;10.95;100.00;97487.19;110648;1245;59666;-77
2022/10/01 03:41:00;;;;;;;7.90;4.80;;;;;;;10.99;100.00;97488.15;110819;1245;71520;-77
2022/10/01 03:43:29;;;;;;;7.60;5.80;;;;;;;11.02;100.00;97489.54;110566;1244;69237;-74
2022/10/01 03:45:57;;;;;;;6.50;4.80;;;;;;;10.97;100.00;97485.15;110618;1245;70601;-78
2022/10/01 03:48:25;;;;;;;8.70;5.50;;;;;;;10.94;100.00;97482.24;110553;1245;59747;-78
2022/10/01 03:50:58;;;;;;;10.00;6.30;;;;;;;10.94;100.00;97481.88;110626;1244;60173;-78
2022/10/01 03:53:27;;;;;;;8.00;6.00;;;;;;;10.93;100.00;97486.27;110525;1245;71575;-78
2022/10/01 03:55:57;;;;;;;7.00;4.90;;;;;;;10.91;100.00;97491.90;110706;1245;68537;-77
2022/10/01 03:58:26;;;;;;;6.50;4.70;;;;;;;10.90;100.00;97493.34;110489;1245;68456;-78
2022/10/01 04:00:54;;;;;;;6.70;4.20;;;;;;;10.90;100.00;97485.85;110716;1245;59663;-77
2022/10/01 04:03:22;;;;;;;7.40;5.40;;;;;;;10.89;100.00;97486.30;110506;1247;59762;-77
2022/10/01 04:05:50;;;;;;;9.20;5.60;;;;;;;10.85;100.00;97484.13;110560;1245;70993;-77
2022/10/01 04:08:19;;;;;;;9.60;6.00;;;;;;;10.80;100.00;97494.91;110502;1245;69346;-78
2022/10/01 04:10:52;;;;;;;8.40;5.30;;;;;;;10.77;100.00;97495.73;110512;1245;68746;-77
2022/10/01 04:13:19;;;;;;;9.30;5.70;;;;;;;10.73;100.00;97505.91;110448;1245;59681;-78
2022/10/01 04:15:49;;;;;;;10.00;6.50;;;;;;;10.71;100.00;97513.90;110645;1245;59676;-77
2022/10/01 04:18:18;;;;;;;8.00;5.10;;;;;;;10.69;100.00;97517.30;110522;1245;70838;-77
2022/10/01 04:20:46;;;;;;;6.20;4.90;;;;;;;10.67;100.00;97523.41;110587;1245;69242;-77
2022/10/01 04:23:14;;;;;;;7.00;4.70;;;;;;;10.64;100.00;97530.08;110350;1247;68958;-78
2022/10/01 04:25:42;;;;;;;8.80;5.70;;;;;;;10.61;100.00;97533.40;110462;1245;59614;-77
2022/10/01 04:28:13;;;;;;;6.30;4.70;;;;;;;10.61;100.00;97533.64;110622;1244;59674;-78
2022/10/01 04:30:43;;;;;;;6.60;4.40;;;;;;;10.60;100.00;97538.75;110677;1245;70756;-77
2022/10/01 04:33:13;;;;;;;5.20;4.30;;;;;;;10.59;100.00;97541.05;110612;1245;68580;-78
2022/10/01 04:35:42;;;;;;;8.30;5.70;;;;;;;10.58;100.00;97547.91;110840;1244;68798;-78
2022/10/01 04:38:16;;;;;;;6.40;4.30;;;;;;;10.58;100.00;97547.75;110595;1245;59755;-78
2022/10/01 04:40:43;;;;;;;6.80;4.80;;;;;;;10.58;100.00;97547.59;110728;1244;59653;-76
2022/10/01 04:43:12;;;;;;;7.00;4.80;;;;;;;10.57;100.00;97544.32;110498;1245;72791;-79
2022/10/01 04:45:39;;;;;;;6.90;5.00;;;;;;;10.58;100.00;97542.88;110734;1244;68567;-77
2022/10/01 04:48:06;;;;;;;8.70;5.40;;;;;;;10.59;100.00;97538.66;110649;1244;69277;-77
2022/10/01 04:50:34;;;;;;;7.10;4.80;;;;;;;10.60;100.00;97535.59;110472;1244;59643;-78
2022/10/01 04:53:01;;;;;;;7.10;4.50;;;;;;;10.62;100.00;97532.28;110898;1246;59643;-79
2022/10/01 04:55:29;;;;;;;8.00;5.40;;;;;;;10.65;100.00;97531.74;110394;1247;71664;-79
2022/10/01 04:57:56;;;;;;;8.60;5.30;;;;;;;10.67;100.00;97530.71;110555;1247;69301;-79
2022/10/01 05:00:25;;;;;;;7.20;5.30;;;;;;;10.70;100.00;97534.34;110393;1244;69669;-78
2022/10/01 05:02:53;;;;;;;7.90;5.50;;;;;;;10.74;100.00;97535.48;110374;1245;59692;-78
2022/10/01 05:05:23;;;;;;;7.90;5.70;;;;;;;10.79;100.00;97534.63;110387;1247;59682;-78
2022/10/01 05:07:50;;;;;;;8.30;5.90;;;;;;;10.87;100.00;97536.42;110324;1246;71944;-78
2022/10/01 05:10:21;;;;;;;9.10;6.00;;;;;;;10.99;100.00;97540.83;110345;1247;69330;-77
2022/10/01 05:12:50;;;;;;;8.00;5.90;;;;;;;11.12;100.00;97538.98;110458;1246;69233;-77
2022/10/01 05:15:18;;;;;;;7.70;5.40;;;;;;;11.31;100.00;97537.29;110257;1247;59670;-77
2022/10/01 05:17:46;;;;;;;6.50;4.70;;;;;;;11.52;100.00;97539.17;110460;1247;59594;-77
2022/10/01 05:20:22;;;;;;;6.70;4.70;;;;;;;11.71;100.00;97537.06;110560;1244;70755;-77
2022/10/01 05:22:51;;;;;;;7.10;5.80;;;;;;;11.92;100.00;97540.79;110448;1244;69328;-79
2022/10/01 05:25:19;;;;;;;8.50;6.90;;;;;;;12.07;100.00;97540.13;110397;1245;69296;-77
2022/10/01 05:27:46;;;;;;;8.30;7.10;;;;;;;12.22;100.00;97541.39;110275;1247;59705;-78
2022/10/01 05:30:22;;;;;;;14.20;9.40;;;;;;;12.31;100.00;97548.22;110329;1244;59667;-78
2022/10/01 05:32:58;;;;;;;11.40;9.10;;;;;;;12.35;98.87;97553.83;110448;1245;70764;-76
2022/10/01 05:35:26;;;;;;;13.10;9.90;;;;;;;12.40;96.82;97550.33;110301;1247;68479;-77
2022/10/01 05:38:03;;;;;;;10.90;8.80;;;;;;;12.55;97.63;97551.23;110074;1245;507569;-79
2022/10/01 05:40:32;;;;;;;9.30;6.60;;;;;;;12.73;98.29;97552.45;110503;1247;59744;-76
2022/10/01 05:43:01;;;;;;;10.50;7.00;;;;;;;12.90;98.08;97560.02;110458;1246;59637;-79
2022/10/01 05:45:31;;;;;;;12.40;9.20;;;;;;;13.06;97.01;97559.94;110335;1247;69733;-75
2022/10/01 05:48:05;;;;;;;10.20;7.70;;;;;;;13.24;97.04;97557.61;110247;1245;68840;-77
2022/10/01 05:50:38;;;;;;;14.60;8.50;;;;;;;13.46;96.97;97558.69;110221;1247;67731;-77
2022/10/01 05:53:07;;;;;;;10.70;9.10;;;;;;;13.61;94.95;97562.49;110295;1247;59611;-76
2022/10/01 05:55:34;;;;;;;11.90;8.70;;;;;;;13.83;94.64;97562.40;110565;1245;60105;-75
2022/10/01 05:58:05;;;;;;;10.80;9.20;;;;;;;14.11;94.22;97560.94;110993;1245;71842;-75
2022/10/01 06:00:33;;;;;;;9.00;7.60;;;;;;;14.46;93.79;97566.86;110570;1247;69028;-75
2022/10/01 06:03:03;;;;;;;9.30;7.00;;;;;;;14.89;93.91;97569.48;110513;1247;69388;-76
2022/10/01 06:05:32;;;;;;;11.10;8.80;;;;;;;15.38;91.85;97568.50;110420;1246;60123;-76
2022/10/01 06:08:03;;;;;;;9.90;8.40;;;;;;;15.77;88.78;97569.70;110489;1247;60081;-76
2022/10/01 06:10:30;;;;;;;11.50;9.40;;;;;;;16.09;86.43;97571.14;110266;1245;72100;-76
2022/10/01 06:13:01;;;;;;;10.50;7.90;;;;;;;16.41;84.87;97576.61;110466;1245;69747;-75
2022/10/01 06:15:33;;;;;;;9.70;6.70;;;;;;;16.86;84.03;97574.44;110268;1247;69508;-74
2022/10/01 06:18:05;;;;;;;8.10;6.30;;;;;;;17.23;82.40;97567.88;110633;1244;59644;-74
2022/10/01 06:20:33;;;;;;;9.40;7.10;;;;;;;17.47;81.33;97567.83;110109;1247;59702;-77
2022/10/01 06:23:01;;;;;;;6.50;5.50;;;;;;;17.52;79.61;97566.68;110386;1247;71576;-76
2022/10/01 06:25:28;;;;;;;8.90;7.20;;;;;;;17.82;78.61;97564.56;110404;1247;70080;-74
2022/10/01 06:27:59;;;;;;;9.60;8.70;;;;;;;18.12;78.48;97563.82;110454;1244;67780;-77
2022/10/01 06:30:34;;;;;;;11.60;8.10;;;;;;;18.24;76.41;97566.14;110679;1245;59748;-75
2022/10/01 06:33:13;;;;;;;8.60;7.20;;;;;;;18.51;75.68;97574.91;110383;1244;59695;-76
2022/10/01 06:35:43;;;;;;;6.90;6.20;;;;;;;18.72;74.77;97573.77;110325;1245;71952;-74
2022/10/01 06:38:10;;;;;;;7.90;5.60;;;;;;;18.94;73.02;97566.58;110492;1247;71167;-74
2022/10/01 06:40:39;;;;;;;6.40;4.30;;;;;;;19.09;70.71;97564.23;110468;1244;70297;-75
2022/10/01 06:43:08;;;;;;;5.70;4.40;;;;;;;19.09;70.28;97561.64;110602;1244;59770;-77
2022/10/01 06:45:44;;;;;;;6.20;3.30;;;;;;;19.22;68.06;97564.00;110342;1245;59645;-74
2022/10/01 06:48:13;;;;;;;4.00;3.20;;;;;;;19.19;68.05;97559.18;110564;1244;72107;-73
2022/10/01 06:50:44;;;;;;;6.10;3.20;;;;;;;19.45;68.56;97551.61;110459;1247;69388;-73
2022/10/01 06:53:14;;;;;;;4.40;3.30;;;;;;;19.81;68.43;97546.13;110425;1247;69306;-71
2022/10/01 06:55:41;;;;;;;4.70;4.00;;;;;;;20.27;67.91;97547.02;110521;1247;60236;-72
2022/10/01 06:58:14;;;;;;;6.50;3.40;;;;;;;20.37;66.57;97545.64;110489;1246;59692;-72
2022/10/01 07:00:43;;;;;;;4.50;3.40;;;;;;;20.66;65.04;97537.52;110380;1245;71694;-73
2022/10/01 07:03:13;;;;;;;;;;;;;;;20.59;63.84;97538.64;110789;1245;68735;-74
2022/10/01 07:05:40;;;;;;;4.00;3.30;;;;;;;20.67;62.26;97534.44;110528;1245;69749;-74
2022/10/01 07:08:08;;;;;;;4.80;3.10;;;;;;;20.88;62.16;97529.36;110331;1244;59747;-73
2022/10/01 07:10:39;;;;;;;5.10;3.00;;;;;;;20.95;61.24;97526.52;110502;1245;59730;-73
2022/10/01 07:13:12;;;;;;;4.60;3.00;;;;;;;20.94;61.20;97528.20;110372;1247;71610;-74
2022/10/01 07:15:40;;;;;;;5.80;3.00;;;;;;;21.10;61.19;97525.95;110353;1247;70062;-73
2022/10/01 07:18:08;;;;;;;3.20;2.50;;;;;;;21.13;61.36;97524.24;110431;1245;68987;-74
2022/10/01 07:20:39;;;;;;;5.30;3.10;;;;;;;21.39;61.82;97524.39;110529;1245;59759;-73
2022/10/01 07:23:13;;;;;;;4.70;3.60;;;;;;;21.67;60.32;97525.06;110492;1244;59724;-72
2022/10/01 07:25:41;;;;;;;3.10;2.80;;;;;;;21.61;59.43;97525.08;110545;1244;71178;-74
2022/10/01 07:28:17;;;;;;;3.80;2.90;;;;;;;21.93;58.57;97517.30;110378;1247;67916;-72
2022/10/01 07:30:58;;;;;;;3.40;2.30;;;;;;;22.16;57.57;97521.60;110268;1245;69312;-73
2022/10/01 07:33:26;;;;;;;4.80;3.00;;;;;;;22.48;57.96;97531.37;110568;1244;59742;-73
2022/10/01 07:35:53;;;;;;;3.60;2.70;;;;;;;22.85;56.40;97529.13;110426;1244;59669;-73
2022/10/01 07:38:21;;;;;;;3.50;2.50;;;;;;;23.14;55.88;97527.64;110400;1244;71429;-74
2022/10/01 07:40:53;;;;;;;5.60;2.50;;;;;;;23.33;55.30;97525.14;110711;1244;70351;-72
2022/10/01 07:43:21;;;;;;;4.70;2.90;;;;;;;23.53;54.63;97523.20;110428;1245;69421;-70
2022/10/01 07:45:53;;;;;;;2.30;2.00;;;;;;;23.64;54.42;97524.96;110402;1247;59661;-74
2022/10/01 07:48:21;;;;;;;4.90;2.70;;;;;;;23.86;53.23;97527.09;110420;1247;59668;-72
2022/10/01 07:50:48;;;;;;;3.70;2.40;;;;;;;23.98;52.74;97524.82;110418;1247;72196;-72
2022/10/01 07:53:16;;;;;;;2.90;2.00;;;;;;;24.03;51.81;97530.48;110090;1247;69434;-72
2022/10/01 07:55:44;;;;;;;2.50;1.80;;;;;;;24.25;53.09;97521.77;110562;1246;69003;-70
2022/10/01 07:58:12;;;;;;;5.30;2.70;;;;;;;24.33;51.13;97519.83;110271;1247;59735;-71
2022/10/01 08:00:39;;;;;;;4.00;2.30;;;;;;;24.04;51.33;97515.33;110241;1246;59655;-72
2022/10/01 08:03:07;;;;;;;4.10;2.50;;;;;;;23.99;51.43;97512.22;110297;1247;72452;-72
2022/10/01 08:05:35;;;;;;;4.60;2.40;;;;;;;23.90;51.47;97508.69;110294;1247;69549;-71
2022/10/01 08:08:05;;;;;;;3.60;2.30;;;;;;;23.97;52.22;97503.11;110630;1247;69895;-72
2022/10/01 08:10:35;;;;;;;2.50;2.30;;;;;;;24.00;51.29;97501.61;110357;1247;59758;-73
2022/10/01 08:13:09;;;;;;;3.10;2.10;;;;;;;24.26;50.85;97497.58;110467;1247;59681;-71
2022/10/01 08:15:41;;;;;;;3.80;2.70;;;;;;;24.29;49.87;97495.55;110287;1247;71450;-71
2022/10/01 08:18:10;;;;;;;3.90;2.10;;;;;;;24.57;49.36;97492.96;110351;1247;69889;-72
2022/10/01 08:20:38;;;;;;;4.10;2.50;;;;;;;24.91;49.25;97493.47;110232;1247;68563;-71
2022/10/01 08:23:09;;;;;;;2.10;1.80;;;;;;;25.28;49.21;97495.39;110395;1246;59732;-71
2022/10/01 08:25:38;;;;;;;3.60;2.20;;;;;;;25.59;47.98;97492.01;110402;1247;59760;-72
2022/10/01 08:28:09;;;;;;;4.90;2.30;;;;;;;25.97;47.21;97489.86;110456;1247;72139;-70
2022/10/01 08:30:40;;;;;;;3.30;2.00;;;;;;;26.16;45.95;97487.73;110415;1247;68492;-71
2022/10/01 08:33:10;;;;;;;3.10;2.20;;;;;;;26.42;46.85;97484.77;110374;1247;69346;-71
2022/10/01 08:35:39;;;;;;;4.00;2.50;;;;;;;26.70;45.27;97481.86;110541;1246;59735;-71
2022/10/01 08:38:07;;;;;;;2.40;2.20;;;;;;;26.53;43.99;97480.74;110349;1247;59688;-72
2022/10/01 08:40:41;;;;;;;2.50;2.00;;;;;;;26.25;45.03;97478.27;110348;1247;72073;-72
2022/10/01 08:43:33;;;;;;;2.30;1.70;;;;;;;26.76;46.03;97478.81;110273;1245;69637;-73
2022/10/01 08:46:05;;;;;;;3.30;2.50;;;;;;;27.22;44.54;97477.94;110250;1247;70088;-73
2022/10/01 08:48:59;;;;;;;2.80;2.10;;;;;;;27.40;43.01;97471.97;110363;1247;59729;-72
2022/10/01 08:51:39;;;;;;;2.60;2.30;;;;;;;27.56;42.21;97463.89;110266;1247;59695;-74
2022/10/01 08:54:28;;;;;;;2.70;2.00;;;;;;;27.74;42.46;97468.97;110302;1247;70620;-72
2022/10/01 08:57:01;;;;;;;4.20;2.20;;;;;;;27.87;41.46;97461.97;110330;1245;69051;-73
2022/10/01 08:59:34;;;;;;;2.20;1.90;;;;;;;27.90;41.63;97459.51;110384;1247;69657;-71
2022/10/01 09:02:01;;;;;;;3.60;2.00;;;;;;;27.70;40.90;97459.61;110215;1247;59677;-72
2022/10/01 09:04:28;;;;;;;3.30;2.30;;;;;;;27.74;41.59;97462.65;110352;1244;59856;-72
2022/10/01 09:07:16;;;;;;;4.90;2.20;;;;;;;27.93;41.03;97454.85;110334;1244;71730;-73
2022/10/01 09:09:59;;;;;;;3.90;2.30;;;;;;;28.16;40.35;97452.34;111118;1244;68417;-72
2022/10/01 09:12:45;;;;;;;6.20;2.40;;;;;;;28.40;40.07;97447.24;111011;1244;69375;-72
2022/10/01 09:15:16;;;;;;;2.90;2.20;;;;;;;28.16;39.52;97444.45;110486;1244;59783;-72
2022/10/01 09:17:52;;;;;;;2.20;2.00;;;;;;;27.88;40.00;97444.77;110444;1245;59687;-69
2022/10/01 09:20:26;;;;;;;2.60;2.30;;;;;;;28.02;40.39;97440.95;110575;1244;72143;-73
2022/10/01 09:23:26;;;;;;;2.70;2.30;;;;;;;28.12;39.21;97437.52;110409;1244;69402;-73
2022/10/01 09:25:56;;;;;;;3.20;2.40;;;;;;;28.25;39.26;97434.55;110464;1243;68823;-73
2022/10/01 09:28:27;;;;;;;2.90;2.00;;;;;;;28.26;38.49;97429.92;110431;1246;59673;-71
2022/10/01 09:30:59;;;;;;;5.10;2.20;;;;;;;27.92;39.86;97423.73;110283;1245;59690;-73
2022/10/01 09:33:35;;;;;;;3.70;2.70;;;;;;;28.07;39.71;97424.04;110240;1244;71486;-70
2022/10/01 09:36:17;;;;;;;5.10;2.80;;;;;;;28.06;39.96;97423.98;110216;1247;69047;-70
2022/10/01 09:38:50;;;;;;;3.20;2.70;;;;;;;27.32;40.60;97421.55;110251;1244;69452;-71
2022/10/01 09:41:18;;;;;;;3.60;2.50;;;;;;;27.32;40.92;97421.20;110357;1244;59669;-71
2022/10/01 09:43:46;;;;;;;3.90;2.50;;;;;;;27.37;40.80;97413.40;110254;1244;59682;-71
2022/10/01 09:46:16;;;;;;;3.50;2.60;;;;;;;27.46;41.39;97403.98;110291;1244;71446;-70
2022/10/01 09:48:59;;;;;;;3.10;2.80;;;;;;;27.46;40.83;97402.69;110279;1245;69210;-71
2022/10/01 09:51:33;;;;;;;3.30;2.50;;;;;;;27.59;40.96;97396.41;110277;1244;70068;-69
2022/10/01 09:54:10;;;;;;;5.40;3.40;;;;;;;27.63;40.69;97385.31;110693;1244;59674;-71
2022/10/01 09:56:47;;;;;;;3.30;2.80;;;;;;;27.38;40.68;97377.19;110773;1244;59714;-70
2022/10/01 09:59:35;;;;;;;3.80;2.70;;;;;;;27.61;41.32;97378.80;110486;1243;71515;-69
2022/10/01 10:02:13;;;;;;;2.70;2.50;;;;;;;27.86;41.40;97377.07;110540;1244;69874;-72
2022/10/01 10:04:43;;;;;;;6.70;3.00;;;;;;;28.14;40.45;97371.94;110352;1244;69189;-70
2022/10/01 10:07:18;;;;;;;3.60;3.20;;;;;;;28.13;39.00;97365.52;110285;1244;59763;-71
2022/10/01 10:09:46;;;;;;;2.70;2.40;;;;;;;27.83;39.30;97359.39;110520;1244;59641;-71
2022/10/01 10:12:27;;;;;;;2.60;2.30;;;;;;;27.85;40.39;97357.05;110224;1244;71431;-72
2022/10/01 10:14:57;;;;;;;3.20;2.80;;;;;;;28.16;37.74;97353.89;110230;1244;68585;-71
2022/10/01 10:17:26;;;;;;;5.80;3.20;;;;;;;28.13;36.95;97348.05;110219;1244;69328;-71
2022/10/01 10:19:56;;;;;;;3.10;2.60;;;;;;;28.30;38.59;97349.09;110270;1247;59696;-69
2022/10/01 10:22:25;;;;;;;3.40;3.00;;;;;;;28.78;38.38;97346.22;110356;1244;59627;-70
2022/10/01 10:24:57;;;;;;;4.10;3.00;;;;;;;29.21;36.94;97349.96;110296;1244;71493;-71
2022/10/01 10:27:29;;;;;;;4.30;3.00;;;;;;;29.64;36.91;97352.45;110290;1244;68918;-70
2022/10/01 10:30:07;;;;;;;4.20;2.40;;;;;;;29.83;35.73;97354.42;110433;1244;70088;-69
2022/10/01 10:32:35;;;;;;;3.30;3.00;;;;;;;30.02;35.12;97350.98;110283;1244;59667;-70
2022/10/01 10:35:09;;;;;;;3.40;3.10;;;;;;;30.18;33.90;97343.34;110408;1244;59679;-71
2022/10/01 10:37:44;;;;;;;4.50;2.50;;;;;;;30.29;33.57;97341.57;110370;1244;71836;-71
2022/10/01 10:40:26;;;;;;;3.70;2.90;;;;;;;30.38;33.28;97337.77;110277;1244;69317;-72
2022/10/01 10:42:58;;;;;;;2.90;2.30;;;;;;;30.30;31.64;97335.81;110517;1244;69210;-71
2022/10/01 10:45:36;;;;;;;2.60;2.40;;;;;;;29.49;32.33;97328.52;110516;1244;59713;-71
2022/10/01 10:48:10;;;;;;;4.90;4.00;;;;;;;29.82;33.29;97329.23;110385;1244;59755;-72
2022/10/01 10:50:44;;;;;;;4.70;3.10;;;;;;;30.10;33.14;97324.02;110419;1246;71447;-71
2022/10/01 10:53:19;;;;;;;3.30;2.40;;;;;;;30.27;33.19;97321.63;110669;1244;69864;-72
2022/10/01 10:55:54;;;;;;;3.60;2.50;;;;;;;29.84;33.57;97322.16;110557;1244;68597;-71
2022/10/01 10:58:25;;;;;;;4.20;2.70;;;;;;;29.40;34.01;97319.05;110686;1244;59683;-71
2022/10/01 11:01:05;;;;;;;3.50;2.60;;;;;;;29.07;34.98;97313.35;110492;1244;59687;-71
2022/10/01 11:03:36;;;;;;;4.60;2.90;;;;;;;28.92;34.26;97308.38;110422;1244;71018;-70
2022/10/01 11:06:11;;;;;;;3.70;2.90;;;;;;;28.67;35.26;97295.41;110269;1244;69956;-72
2022/10/01 11:08:38;;;;;;;2.60;2.30;;;;;;;28.38;35.85;97295.40;110289;1244;68522;-70
2022/10/01 11:11:42;;;;;;;4.80;2.70;;;;;;;28.30;35.79;97285.33;110371;1244;59747;-69
2022/10/01 11:14:48;;;;;;;3.40;2.30;;;;;;;28.39;35.64;97278.66;110311;1244;59689;-69
2022/10/01 11:17:50;;;;;;;3.30;2.40;;;;;;;28.39;36.42;97274.25;109467;1254;72121;-72
2022/10/01 11:20:33;;;;;;;3.60;2.60;;;;;;;27.85;36.58;97268.95;110323;1244;69886;-69
2022/10/01 11:23:15;;;;;;;3.30;2.70;;;;;;;27.95;36.04;97264.57;110401;1244;69851;-70
2022/10/01 11:26:17;;;;;;;3.80;2.30;;;;;;;27.64;35.91;97263.77;110281;1244;59846;-70
2022/10/01 11:28:46;;;;;;;3.90;2.50;;;;;;;27.50;36.15;97265.38;110303;1244;59744;-69
2022/10/01 11:31:23;;;;;;;2.80;2.20;;;;;;;27.54;35.29;97265.38;110300;1247;71958;-70
2022/10/01 11:34:02;;;;;;;2.80;2.30;;;;;;;27.61;35.22;97265.70;110169;1246;70039;-70
2022/10/01 11:36:35;;;;;;;3.20;1.70;;;;;;;27.55;35.28;97257.92;110303;1244;69271;-70
2022/10/01 11:39:12;;;;;;;4.10;2.40;;;;;;;27.57;35.08;97254.65;110413;1244;59705;-71
2022/10/01 11:41:51;;;;;;;3.40;2.40;;;;;;;27.55;35.21;97251.78;110288;1244;59678;-69
2022/10/01 11:44:52;;;;;;;4.00;2.60;;;;;;;27.54;35.55;97245.10;110316;1244;71933;-71
2022/10/01 11:47:35;;;;;;;4.60;2.50;;;;;;;27.32;36.82;97243.70;110297;1244;70041;-69